createdAt,value
2019-04-01T00:01:55.567Z,23.23
2019-04-01T00:04:24.724Z,21.40
2019-04-01T00:06:53.880Z,26.07
2019-04-01T00:09:23.055Z,20.77
2019-04-01T00:11:52.284Z,24.07
2019-04-01T00:14:21.407Z,23.50
2019-04-01T00:16:50.563Z,20.97
2019-04-01T00:19:19.957Z,22.23
2019-04-01T00:21:49.095Z,22.10
2019-04-01T00:24:18.215Z,21.17
2019-04-01T00:26:47.347Z,19.60
2019-04-01T00:29:16.585Z,22.23
2019-04-01T00:31:45.718Z,23.20
2019-04-01T00:34:14.894Z,23.93
2019-04-01T00:36:44.005Z,23.63
2019-04-01T00:39:13.151Z,21.63
2019-04-01T00:41:52.889Z,24.70
2019-04-01T00:44:22.036Z,22.83
2019-04-01T00:46:51.186Z,21.20
2019-04-01T00:49:20.386Z,22.73
2019-04-01T00:51:49.548Z,22.57
2019-04-01T00:54:18.679Z,24.97
2019-04-01T00:56:47.850Z,20.83
2019-04-01T00:59:17.029Z,24.37
2019-04-01T01:01:46.154Z,22.73
2019-04-01T01:04:15.287Z,21.87
2019-04-01T01:06:44.433Z,22.90
2019-04-01T01:09:13.586Z,24.60
2019-04-01T01:11:42.864Z,21.27
2019-04-01T01:14:12.426Z,21.90
2019-04-01T01:16:41.578Z,21.70
2019-04-01T01:19:10.709Z,21.03
2019-04-01T01:21:39.839Z,21.93
2019-04-01T01:24:08.992Z,21.63
2019-04-01T01:26:38.138Z,21.87
2019-04-01T01:29:07.302Z,22.33
2019-04-01T01:31:36.444Z,23.90
2019-04-01T01:34:05.631Z,22.27
2019-04-01T01:36:34.901Z,21.27
2019-04-01T01:39:06.102Z,22.83
2019-04-01T01:41:35.262Z,24.07
2019-04-01T01:44:04.398Z,24.07
2019-04-01T01:46:33.572Z,21.80
2019-04-01T01:49:02.806Z,20.90
2019-04-01T01:51:31.933Z,22.20
2019-04-01T01:54:01.114Z,28.27
2019-04-01T01:56:30.239Z,22.00
2019-04-01T01:58:59.365Z,26.03
2019-04-01T02:01:28.521Z,21.03
2019-04-01T02:03:57.633Z,27.87
2019-04-01T02:06:26.785Z,22.87
2019-04-01T02:08:55.909Z,23.67
2019-04-01T02:11:25.118Z,22.77
2019-04-01T02:13:54.298Z,24.00
2019-04-01T02:16:23.432Z,25.60
2019-04-01T02:18:52.612Z,21.33
2019-04-01T02:21:21.759Z,23.07
2019-04-01T02:23:50.910Z,25.10
2019-04-01T02:26:20.152Z,22.87
2019-04-01T02:28:49.271Z,23.10
2019-04-01T02:31:18.518Z,23.63
2019-04-01T02:33:47.655Z,25.57
2019-04-01T02:36:16.910Z,24.27
2019-04-01T02:38:46.079Z,27.23
2019-04-01T02:41:15.223Z,23.00
2019-04-01T02:43:44.444Z,22.77
2019-04-01T02:46:13.586Z,24.70
2019-04-01T02:48:42.998Z,23.83
2019-04-01T02:51:12.217Z,23.23
2019-04-01T02:53:41.346Z,25.30
2019-04-01T02:56:10.488Z,23.80
2019-04-01T02:58:39.638Z,24.97
2019-04-01T03:01:08.786Z,26.43
2019-04-01T03:03:37.925Z,26.50
2019-04-01T03:06:07.102Z,28.80
2019-04-01T03:08:36.398Z,24.53
2019-04-01T03:11:10.024Z,22.53
2019-04-01T03:13:36.443Z,30.87
2019-04-01T03:16:05.592Z,23.83
2019-04-01T03:18:34.709Z,28.17
2019-04-01T03:21:03.854Z,25.07
2019-04-01T03:23:33.010Z,26.10
2019-04-01T03:26:02.147Z,25.40
2019-04-01T03:28:31.360Z,28.40
2019-04-01T03:31:00.503Z,25.40
2019-04-01T03:33:29.675Z,34.67
2019-04-01T03:35:58.893Z,26.30
2019-04-01T03:38:28.320Z,26.17
2019-04-01T03:40:57.662Z,28.67
2019-04-01T03:43:26.788Z,26.17
2019-04-01T03:45:55.961Z,27.50
2019-04-01T03:48:25.119Z,28.60
2019-04-01T03:50:54.278Z,28.97
2019-04-01T03:53:23.445Z,26.20
2019-04-01T03:55:52.585Z,27.97
2019-04-01T03:58:21.756Z,29.00
2019-04-01T04:00:50.966Z,29.27
2019-04-01T04:03:20.108Z,27.70
2019-04-01T04:05:49.287Z,27.73
2019-04-01T04:08:18.424Z,29.87
2019-04-01T04:10:47.622Z,30.63
2019-04-01T04:13:16.819Z,26.40
2019-04-01T04:15:46.016Z,26.90
2019-04-01T04:18:15.168Z,32.53
2019-04-01T04:20:44.297Z,28.70
2019-04-01T04:23:13.493Z,28.63
2019-04-01T04:25:42.701Z,27.13
2019-04-01T04:28:11.908Z,32.40
2019-04-01T04:30:41.218Z,31.07
2019-04-01T04:33:10.455Z,29.03
2019-04-01T04:35:39.712Z,30.47
2019-04-01T04:38:08.892Z,27.10
2019-04-01T04:40:40.894Z,30.73
2019-04-01T04:43:08.873Z,28.83
2019-04-01T04:45:38.029Z,31.97
2019-04-01T04:48:07.175Z,31.73
2019-04-01T04:50:36.454Z,31.17
2019-04-01T04:53:06.165Z,31.20
2019-04-01T04:55:35.536Z,41.33
2019-04-01T04:58:04.771Z,29.67
2019-04-01T05:00:33.912Z,31.70
2019-04-01T05:03:03.078Z,33.03
2019-04-01T05:05:32.224Z,29.13
2019-04-01T05:08:01.376Z,27.07
2019-04-01T05:10:30.596Z,33.37
2019-04-01T05:12:59.768Z,33.23
2019-04-01T05:15:28.894Z,32.87
2019-04-01T05:17:58.118Z,34.67
2019-04-01T05:20:27.862Z,29.50
2019-04-01T05:22:57.279Z,27.37
2019-04-01T05:25:26.606Z,31.83
2019-04-01T05:27:59.230Z,30.30
2019-04-01T05:30:31.076Z,35.67
2019-04-01T05:33:03.294Z,34.53
2019-04-01T05:35:35.598Z,29.83
2019-04-01T05:38:05.495Z,30.63
2019-04-01T05:40:37.234Z,31.67
2019-04-01T05:43:06.394Z,28.67
2019-04-01T05:45:35.638Z,28.83
2019-04-01T05:48:04.871Z,35.00
2019-04-01T05:50:34.114Z,34.47
2019-04-01T05:53:03.360Z,30.63
2019-04-01T05:55:32.977Z,31.73
2019-04-01T05:58:02.111Z,29.93
2019-04-01T06:00:42.096Z,30.67
2019-04-01T06:03:11.237Z,29.47
2019-04-01T06:05:40.347Z,30.43
2019-04-01T06:08:10.113Z,29.20
2019-04-01T06:10:39.327Z,35.03
2019-04-01T06:13:08.496Z,25.37
2019-04-01T06:15:38.311Z,29.43
2019-04-01T06:18:07.420Z,29.87
2019-04-01T06:20:36.567Z,24.60
2019-04-01T06:23:05.802Z,29.73
2019-04-01T06:25:35.022Z,28.53
2019-04-01T06:28:06.373Z,24.73
2019-04-01T06:30:35.511Z,28.73
2019-04-01T06:33:04.671Z,30.63
2019-04-01T06:35:33.926Z,26.17
2019-04-01T06:38:03.106Z,28.13
2019-04-01T06:40:32.716Z,26.93
2019-04-01T06:43:01.919Z,33.03
2019-04-01T06:45:31.063Z,24.00
2019-04-01T06:48:00.590Z,27.00
2019-04-01T06:50:29.771Z,25.77
2019-04-01T06:52:58.932Z,29.50
2019-04-01T06:55:28.074Z,26.03
2019-04-01T06:57:57.235Z,23.67
2019-04-01T07:00:26.389Z,25.10
2019-04-01T07:02:55.535Z,27.47
2019-04-01T07:05:24.771Z,29.63
2019-04-01T07:07:53.995Z,24.03
2019-04-01T07:10:24.823Z,22.30
2019-04-01T07:12:54.011Z,24.03
2019-04-01T07:15:23.153Z,23.07
2019-04-01T07:17:52.278Z,25.03
2019-04-01T07:20:21.456Z,22.60
2019-04-01T07:22:50.641Z,23.33
2019-04-01T07:25:19.820Z,23.50
2019-04-01T07:27:49.101Z,20.17
2019-04-01T07:30:18.539Z,26.93
2019-04-01T07:32:47.889Z,22.67
2019-04-01T07:35:17.074Z,21.73
2019-04-01T07:37:46.261Z,21.43
2019-04-01T07:40:15.463Z,21.57
2019-04-01T07:42:45.015Z,24.00
2019-04-01T07:45:17.489Z,24.20
2019-04-01T07:47:46.723Z,23.83
2019-04-01T07:50:16.719Z,23.23
2019-04-01T07:52:46.366Z,23.90
2019-04-01T07:55:15.545Z,22.93
2019-04-01T07:57:44.733Z,27.37
2019-04-01T08:00:14.005Z,24.27
2019-04-01T08:02:43.151Z,25.47
2019-04-01T08:05:12.417Z,23.53
2019-04-01T08:07:41.542Z,28.17
2019-04-01T08:10:10.849Z,29.33
2019-04-01T08:12:39.988Z,24.63
2019-04-01T08:15:09.619Z,22.93
2019-04-01T08:17:38.759Z,24.47
2019-04-01T08:20:07.895Z,24.23
2019-04-01T08:22:37.072Z,23.30
2019-04-01T08:25:06.475Z,24.13
2019-04-01T08:27:35.604Z,24.63
2019-04-01T08:30:05.753Z,27.40
2019-04-01T08:32:34.897Z,23.00
2019-04-01T08:35:04.939Z,24.13
2019-04-01T08:37:34.092Z,23.37
2019-04-01T08:40:03.223Z,24.17
2019-04-01T08:42:32.420Z,27.20
2019-04-01T08:45:01.573Z,23.77
2019-04-01T08:47:30.718Z,25.37
2019-04-01T08:49:59.848Z,24.20
2019-04-01T08:52:28.995Z,24.27
2019-04-01T08:54:58.141Z,22.93
2019-04-01T08:57:27.259Z,23.90
2019-04-01T08:59:56.724Z,26.03
2019-04-01T09:02:25.938Z,24.00
2019-04-01T09:04:55.081Z,23.40
2019-04-01T09:07:24.302Z,23.27
2019-04-01T09:09:54.568Z,23.93
2019-04-01T09:12:23.992Z,23.80
2019-04-01T09:14:54.740Z,28.23
2019-04-01T09:17:23.862Z,20.50
2019-04-01T09:19:53.047Z,25.10
2019-04-01T09:22:22.212Z,24.37
2019-04-01T09:24:51.353Z,22.53
2019-04-01T09:27:20.490Z,22.60
2019-04-01T09:29:49.650Z,24.43
2019-04-01T09:32:18.762Z,23.07
2019-04-01T09:34:47.899Z,24.67
2019-04-01T09:37:17.105Z,21.13
2019-04-01T09:39:46.287Z,22.67
2019-04-01T09:42:15.434Z,23.80
2019-04-01T09:44:44.676Z,23.27
2019-04-01T09:47:13.822Z,22.33
2019-04-01T09:49:42.928Z,22.87
2019-04-01T09:52:12.173Z,23.40
2019-04-01T09:54:41.318Z,22.07
2019-04-01T09:57:17.443Z,24.03
2019-04-01T09:59:41.316Z,24.07
2019-04-01T10:02:10.542Z,21.67
2019-04-01T10:04:39.676Z,22.57
2019-04-01T10:07:08.796Z,23.03
2019-04-01T10:09:37.924Z,21.97
2019-04-01T10:12:07.070Z,25.30
2019-04-01T10:14:36.233Z,21.40
2019-04-01T10:17:05.394Z,19.87
2019-04-01T10:19:34.523Z,22.10
2019-04-01T10:22:03.669Z,21.67
2019-04-01T10:24:32.879Z,22.73
2019-04-01T10:27:02.013Z,23.77
2019-04-01T10:29:31.155Z,23.10
2019-04-01T10:32:00.278Z,21.10
2019-04-01T10:34:29.535Z,23.77
2019-04-01T10:36:58.703Z,22.97
2019-04-01T10:39:27.896Z,22.33
2019-04-01T10:41:57.045Z,22.53
2019-04-01T10:44:26.187Z,21.53
2019-04-01T10:46:55.351Z,22.00
2019-04-01T10:49:24.578Z,25.80
2019-04-01T10:51:53.782Z,22.27
2019-04-01T10:54:23.010Z,24.93
2019-04-01T10:56:52.314Z,22.83
2019-04-01T10:59:21.562Z,22.07
2019-04-01T11:01:50.716Z,20.47
2019-04-01T11:04:19.922Z,21.43
2019-04-01T11:06:49.124Z,21.20
2019-04-01T11:09:18.431Z,21.83
2019-04-01T11:11:47.601Z,21.73
2019-04-01T11:14:16.844Z,20.17
2019-04-01T11:16:46.239Z,21.37
2019-04-01T11:19:15.874Z,26.93
2019-04-01T11:21:45.007Z,21.23
2019-04-01T11:24:14.265Z,22.67
2019-04-01T11:26:43.419Z,23.13
2019-04-01T11:29:12.656Z,21.77
2019-04-01T11:31:41.827Z,22.53
2019-04-01T11:34:11.046Z,21.83
2019-04-01T11:36:40.241Z,21.47
2019-04-01T11:39:12.325Z,20.73
2019-04-01T11:41:41.488Z,19.93
2019-04-01T11:44:10.721Z,19.10
2019-04-01T11:46:40.951Z,20.27
2019-04-01T11:49:10.092Z,21.17
2019-04-01T11:51:40.204Z,19.30
2019-04-01T11:54:10.241Z,22.17
2019-04-01T11:56:41.378Z,19.73
2019-04-01T11:59:10.671Z,18.33
2019-04-01T12:01:39.777Z,18.20
2019-04-01T12:04:08.936Z,18.23
2019-04-01T12:06:38.058Z,19.23
2019-04-01T12:09:07.528Z,19.10
2019-04-01T12:11:36.674Z,18.43
2019-04-01T12:14:05.828Z,18.93
2019-04-01T12:16:35.064Z,21.03
2019-04-01T12:19:04.215Z,19.77
2019-04-01T12:21:33.349Z,17.30
2019-04-01T12:24:02.507Z,19.03
2019-04-01T12:26:31.622Z,16.87
2019-04-01T12:29:00.804Z,17.90
2019-04-01T12:31:30.329Z,15.63
2019-04-01T12:33:59.469Z,16.77
2019-04-01T12:36:28.609Z,17.37
2019-04-01T12:38:57.764Z,17.37
2019-04-01T12:41:26.934Z,18.17
2019-04-01T12:43:56.060Z,17.63
2019-04-01T12:46:25.210Z,18.47
2019-04-01T12:48:54.474Z,16.70
2019-04-01T12:51:23.621Z,18.33
2019-04-01T12:53:52.772Z,14.30
2019-04-01T12:56:21.934Z,15.97
2019-04-01T12:58:51.092Z,16.87
2019-04-01T13:01:20.541Z,18.83
2019-04-01T13:03:50.283Z,20.30
2019-04-01T13:06:19.506Z,16.53
2019-04-01T13:08:48.654Z,16.27
2019-04-01T13:11:19.351Z,15.23
2019-04-01T13:13:48.898Z,13.97
2019-04-01T13:16:18.272Z,16.30
2019-04-01T13:18:47.616Z,16.20
2019-04-01T13:21:16.820Z,15.57
2019-04-01T13:23:45.975Z,19.10
2019-04-01T13:26:15.166Z,16.90
2019-04-01T13:28:44.293Z,16.43
2019-04-01T13:31:13.526Z,18.43
2019-04-01T13:33:42.674Z,18.63
2019-04-01T13:36:11.909Z,21.90
2019-04-01T13:38:41.051Z,18.50
2019-04-01T13:41:13.107Z,16.50
2019-04-01T13:43:41.139Z,17.63
2019-04-01T13:46:10.289Z,17.00
2019-04-01T13:48:39.425Z,15.73
2019-04-01T13:51:08.592Z,15.53
2019-04-01T13:53:37.745Z,19.53
2019-04-01T13:56:10.059Z,15.57
2019-04-01T13:58:39.298Z,17.60
2019-04-01T14:01:08.533Z,17.23
2019-04-01T14:03:37.691Z,14.73
2019-04-01T14:06:06.832Z,15.83
2019-04-01T14:08:36.043Z,15.67
2019-04-01T14:11:06.127Z,16.70
2019-04-01T14:13:35.469Z,15.33
2019-04-01T14:16:04.614Z,15.70
2019-04-01T14:18:33.756Z,17.33
2019-04-01T14:21:15.117Z,14.70
2019-04-01T14:23:33.822Z,14.67
2019-04-01T14:26:02.935Z,17.10
2019-04-01T14:28:32.068Z,16.67
2019-04-01T14:31:01.274Z,18.20
2019-04-01T14:33:32.617Z,16.67
2019-04-01T14:36:01.350Z,16.10
2019-04-01T14:38:30.436Z,15.70
2019-04-01T14:40:59.677Z,15.80
2019-04-01T14:43:31.133Z,14.73
2019-04-01T14:45:59.831Z,13.03
2019-04-01T14:48:30.588Z,12.33
2019-04-01T14:50:59.951Z,12.80
2019-04-01T14:53:29.095Z,14.03
2019-04-01T14:55:59.045Z,11.63
2019-04-01T14:58:28.448Z,12.70
2019-04-01T15:00:57.611Z,11.87
2019-04-01T15:03:26.742Z,10.47
2019-04-01T15:05:55.895Z,11.97
2019-04-01T15:08:25.041Z,11.33
2019-04-01T15:10:54.198Z,11.00
2019-04-01T15:13:23.429Z,10.13
2019-04-01T15:15:52.527Z,10.43
2019-04-01T15:18:21.699Z,10.93
2019-04-01T15:20:50.834Z,10.83
2019-04-01T15:23:19.979Z,11.97
2019-04-01T15:25:49.241Z,11.37
2019-04-01T15:28:18.353Z,10.97
2019-04-01T15:30:47.569Z,10.87
2019-04-01T15:33:16.752Z,10.73
2019-04-01T15:35:45.906Z,10.53
2019-04-01T15:38:15.023Z,9.97
2019-04-01T15:40:44.143Z,9.13
2019-04-01T15:43:13.259Z,10.60
2019-04-01T15:45:42.408Z,10.30
2019-04-01T15:48:11.559Z,9.33
2019-04-01T15:50:40.673Z,12.33
2019-04-01T15:53:09.804Z,9.43
2019-04-01T15:55:39.001Z,11.97
2019-04-01T15:58:08.175Z,10.40
2019-04-01T16:00:37.362Z,11.50
2019-04-01T16:03:06.551Z,10.57
2019-04-01T16:05:35.690Z,11.43
2019-04-01T16:08:04.823Z,11.40
2019-04-01T16:10:33.957Z,10.73
2019-04-01T16:13:03.146Z,15.37
2019-04-01T16:15:32.586Z,8.13
2019-04-01T16:18:02.392Z,9.67
2019-04-01T16:20:34.119Z,10.63
2019-04-01T16:23:02.892Z,9.37
2019-04-01T16:25:32.054Z,9.87
2019-04-01T16:28:01.246Z,9.87
2019-04-01T16:30:30.424Z,9.60
2019-04-01T16:32:59.588Z,8.53
2019-04-01T16:35:28.730Z,10.03
2019-04-01T16:37:59.491Z,10.87
2019-04-01T16:40:28.929Z,12.50
2019-04-01T16:42:58.055Z,9.73
2019-04-01T16:45:27.185Z,9.87
2019-04-01T16:47:56.277Z,10.83
2019-04-01T16:50:28.458Z,11.07
2019-04-01T16:52:56.392Z,10.90
2019-04-01T16:55:25.965Z,10.37
2019-04-01T16:57:55.138Z,13.07
2019-04-01T17:00:26.184Z,11.00
2019-04-01T17:02:55.728Z,10.10
2019-04-01T17:05:33.658Z,10.77
2019-04-01T17:08:02.933Z,9.90
2019-04-01T17:10:33.072Z,12.83
2019-04-01T17:13:02.440Z,11.87
2019-04-01T17:15:31.632Z,10.63
2019-04-01T17:18:00.736Z,11.33
2019-04-01T17:20:29.904Z,10.80
2019-04-01T17:22:59.066Z,9.40
2019-04-01T17:25:28.178Z,9.13
2019-04-01T17:27:57.332Z,9.80
2019-04-01T17:30:28.057Z,8.97
2019-04-01T17:32:57.178Z,8.03
2019-04-01T17:35:26.306Z,10.13
2019-04-01T17:37:55.440Z,10.23
2019-04-01T17:40:24.573Z,9.30
2019-04-01T17:42:53.705Z,8.97
2019-04-01T17:45:33.530Z,10.07
2019-04-01T17:48:04.375Z,9.53
2019-04-01T17:50:33.517Z,9.83
2019-04-01T17:53:03.319Z,8.97
2019-04-01T17:55:32.531Z,9.30
2019-04-01T17:58:01.779Z,8.63
2019-04-01T18:00:31.623Z,9.10
2019-04-01T18:03:00.743Z,9.80
2019-04-01T18:05:29.900Z,9.37
2019-04-01T18:07:59.030Z,10.77
2019-04-01T18:10:28.535Z,10.17
2019-04-01T18:12:57.901Z,9.57
2019-04-01T18:15:27.067Z,10.00
2019-04-01T18:17:56.218Z,9.80
2019-04-01T18:20:25.434Z,11.97
2019-04-01T18:22:54.580Z,9.57
2019-04-01T18:25:23.753Z,11.17
2019-04-01T18:27:52.903Z,12.20
2019-04-01T18:30:22.615Z,12.27
2019-04-01T18:32:55.153Z,12.37
2019-04-01T18:35:22.628Z,12.50
2019-04-01T18:37:51.744Z,12.93
2019-04-01T18:40:31.969Z,12.23
2019-04-01T18:42:51.856Z,10.30
2019-04-01T18:45:21.402Z,11.40
2019-04-01T18:47:51.508Z,11.50
2019-04-01T18:50:20.699Z,15.70
2019-04-01T18:52:49.877Z,11.93
2019-04-01T18:55:19.018Z,12.03
2019-04-01T18:57:48.142Z,10.07
2019-04-01T19:00:18.288Z,10.00
2019-04-01T19:02:48.451Z,8.97
2019-04-01T19:05:17.622Z,16.00
2019-04-01T19:07:46.793Z,11.67
2019-04-01T19:10:15.924Z,12.20
2019-04-01T19:12:45.119Z,11.53
2019-04-01T19:15:14.408Z,11.13
2019-04-01T19:17:43.531Z,9.50
2019-04-01T19:20:13.133Z,10.33
2019-04-01T19:22:42.270Z,11.07
2019-04-01T19:25:12.133Z,11.23
2019-04-01T19:27:41.288Z,11.53
2019-04-01T19:30:11.556Z,11.50
2019-04-01T19:32:40.706Z,13.27
2019-04-01T19:35:10.019Z,12.40
2019-04-01T19:37:39.180Z,11.13
2019-04-01T19:40:09.033Z,13.10
2019-04-01T19:42:39.648Z,12.23
2019-04-01T19:45:12.040Z,12.80
2019-04-01T19:47:41.499Z,13.57
2019-04-01T19:50:11.161Z,13.40
2019-04-01T19:52:40.347Z,13.27
2019-04-01T19:55:09.517Z,13.53
2019-04-01T19:57:38.714Z,12.60
2019-04-01T20:00:08.753Z,18.17
2019-04-01T20:02:37.916Z,13.83
2019-04-01T20:05:07.232Z,13.80
2019-04-01T20:07:36.428Z,13.47
2019-04-01T20:10:05.937Z,13.40
2019-04-01T20:12:35.057Z,14.00
2019-04-01T20:15:05.035Z,14.33
2019-04-01T20:17:34.169Z,14.10
2019-04-01T20:20:03.407Z,14.43
2019-04-01T20:22:32.643Z,14.17
2019-04-01T20:25:01.791Z,15.37
2019-04-01T20:27:31.037Z,13.97
2019-04-01T20:30:00.199Z,14.33
2019-04-01T20:32:29.343Z,15.23
2019-04-01T20:34:59.569Z,14.00
2019-04-01T20:37:29.653Z,16.77
2019-04-01T20:39:59.283Z,15.93
2019-04-01T20:42:28.468Z,15.90
2019-04-01T20:44:57.622Z,14.73
2019-04-01T20:47:26.772Z,14.73
2019-04-01T20:49:55.917Z,18.63
2019-04-01T20:52:25.103Z,16.63
2019-04-01T20:54:54.270Z,15.30
2019-04-01T20:57:23.539Z,16.67
2019-04-01T20:59:52.732Z,17.00
2019-04-01T21:02:21.872Z,15.90
2019-04-01T21:04:51.054Z,17.17
2019-04-01T21:07:20.192Z,15.47
2019-04-01T21:09:49.405Z,17.33
2019-04-01T21:12:18.532Z,16.20
2019-04-01T21:14:47.684Z,13.93
2019-04-01T21:17:16.842Z,14.43
2019-04-01T21:19:45.985Z,14.97
2019-04-01T21:22:15.128Z,15.77
2019-04-01T21:24:44.244Z,15.83
2019-04-01T21:27:13.373Z,18.90
2019-04-01T21:29:42.536Z,17.70
2019-04-01T21:32:11.669Z,15.10
2019-04-01T21:34:40.802Z,15.73
2019-04-01T21:37:09.931Z,15.87
2019-04-01T21:39:39.089Z,16.30
2019-04-01T21:42:08.492Z,15.50
2019-04-01T21:44:37.614Z,17.17
2019-04-01T21:47:06.940Z,16.77
2019-04-01T21:49:37.057Z,16.67
2019-04-01T21:52:06.702Z,16.90
2019-04-01T21:54:35.864Z,17.30
2019-04-01T21:57:04.996Z,16.83
2019-04-01T21:59:34.142Z,15.60
2019-04-01T22:02:04.555Z,18.33
2019-04-01T22:04:33.761Z,17.23
2019-04-01T22:07:02.912Z,16.93
2019-04-01T22:09:32.059Z,16.73
2019-04-01T22:12:01.242Z,18.67
2019-04-01T22:14:30.372Z,17.43
2019-04-01T22:16:59.542Z,19.17
2019-04-01T22:19:28.747Z,17.10
2019-04-01T22:21:57.957Z,16.83
2019-04-01T22:24:27.145Z,18.37
2019-04-01T22:26:56.494Z,16.20
2019-04-01T22:29:25.910Z,19.43
2019-04-01T22:31:55.175Z,17.93
2019-04-01T22:34:24.310Z,17.93
2019-04-01T22:36:53.490Z,16.60
2019-04-01T22:39:27.381Z,18.60
2019-04-01T22:41:53.520Z,19.87
2019-04-01T22:44:23.342Z,16.13
2019-04-01T22:46:53.228Z,18.23
2019-04-01T22:49:22.543Z,28.47
2019-04-01T22:51:51.712Z,18.20
2019-04-01T22:54:20.884Z,18.23
2019-04-01T22:56:50.019Z,17.53
2019-04-01T22:59:20.175Z,19.27
2019-04-01T23:01:49.591Z,19.47
2019-04-01T23:04:18.820Z,19.10
2019-04-01T23:06:47.955Z,18.13
2019-04-01T23:09:17.067Z,20.53
2019-04-01T23:11:46.301Z,20.23
2019-04-01T23:14:17.079Z,19.23
2019-04-01T23:16:46.413Z,18.13
2019-04-01T23:19:15.545Z,19.33
2019-04-01T23:21:44.688Z,18.17
2019-04-01T23:24:13.837Z,19.07
2019-04-01T23:26:42.948Z,19.37
2019-04-01T23:29:12.115Z,19.67
2019-04-01T23:31:41.245Z,20.10
2019-04-01T23:34:10.369Z,19.07
2019-04-01T23:36:40.178Z,18.57
2019-04-01T23:39:10.305Z,18.53
2019-04-01T23:41:39.483Z,18.43
2019-04-01T23:44:08.600Z,19.60
2019-04-01T23:46:37.733Z,19.50
2019-04-01T23:49:06.889Z,19.40
2019-04-01T23:51:36.242Z,19.87
2019-04-01T23:54:05.856Z,20.50
2019-04-01T23:56:35.004Z,19.70
2019-04-01T23:59:04.250Z,18.33
